Decoded Metar for OIGG (RASHT in IRAN) (IATA:RAS) | Meteo·Mobile Aviation Weather
aviador You're here:

OIGG Decoded Metar

RASHT in IRAN
Report Time2019-03-21 01:00:00
UTC Time2019-03-21 01:14:09
Flight Rules vfr VFR
WindCalm
Visibility8000 m
Phenomena:N/A
Clouds:N/A
CeilingNone
Temp05°C (ISA -10)
Dew Point05°C (100% RH)
AAT3.9°C
QNH1021 hPa
Density Alt-1,417 ft
Elevation-43 ft
Report Wrong Elevation
Raw Report
OIGG 210100Z 00000KT 8000 NSC 05/05 Q1021=

Extra information for OIGG:More info

Metar Taf Metar & Taf Last 4 Metars F.Rules Stats Wind Profile Meteogram Temp Stats Airport Information Weather charts Add Link Nearby VenuesMetar ALERT Operation Metar Decoded Social comments